sensor_id;sensor_type;location;lat;lon;timestamp;temperature;humidity
38380;DHT22;38377;47.418;18.882;2023-04-09T00:01:11;3.40;99.90
38380;DHT22;38377;47.418;18.882;2023-04-09T00:03:37;3.40;99.90
38380;DHT22;38377;47.418;18.882;2023-04-09T00:06:03;3.40;99.90
38380;DHT22;38377;47.418;18.882;2023-04-09T00:08:29;3.50;99.90
38380;DHT22;38377;47.418;18.882;2023-04-09T00:10:56;3.50;99.90
38380;DHT22;38377;47.418;18.882;2023-04-09T00:13:22;3.50;99.90
38380;DHT22;38377;47.418;18.882;2023-04-09T00:15:48;3.50;99.90
38380;DHT22;38377;47.418;18.882;2023-04-09T00:18:14;3.50;99.90
38380;DHT22;38377;47.418;18.882;2023-04-09T00:20:41;3.60;99.90
38380;DHT22;38377;47.418;18.882;2023-04-09T00:23:06;3.60;99.90
38380;DHT22;38377;47.418;18.882;2023-04-09T00:25:32;3.60;99.90
38380;DHT22;38377;47.418;18.882;2023-04-09T00:27:58;3.60;99.90
38380;DHT22;38377;47.418;18.882;2023-04-09T00:30:24;3.60;99.90
38380;DHT22;38377;47.418;18.882;2023-04-09T00:32:49;3.60;99.90
38380;DHT22;38377;47.418;18.882;2023-04-09T00:35:15;3.60;99.90
38380;DHT22;38377;47.418;18.882;2023-04-09T00:37:42;3.60;99.90
38380;DHT22;38377;47.418;18.882;2023-04-09T00:40:09;3.50;99.90
38380;DHT22;38377;47.418;18.882;2023-04-09T00:42:36;3.50;99.90
38380;DHT22;38377;47.418;18.882;2023-04-09T00:45:03;3.50;99.90
38380;DHT22;38377;47.418;18.882;2023-04-09T00:47:29;3.50;99.90
38380;DHT22;38377;47.418;18.882;2023-04-09T00:49:55;3.50;99.90
38380;DHT22;38377;47.418;18.882;2023-04-09T00:52:22;3.40;99.90
38380;DHT22;38377;47.418;18.882;2023-04-09T00:54:49;3.40;99.90
38380;DHT22;38377;47.418;18.882;2023-04-09T00:57:16;3.30;99.90
38380;DHT22;38377;47.418;18.882;2023-04-09T00:59:45;3.30;99.90
38380;DHT22;38377;47.418;18.882;2023-04-09T01:02:11;3.30;99.90
38380;DHT22;38377;47.418;18.882;2023-04-09T01:04:39;3.20;99.90
38380;DHT22;38377;47.418;18.882;2023-04-09T01:09:53;3.20;99.90
38380;DHT22;38377;47.418;18.882;2023-04-09T01:12:35;3.20;99.90
38380;DHT22;38377;47.418;18.882;2023-04-09T01:15:12;3.10;99.90
38380;DHT22;38377;47.418;18.882;2023-04-09T01:20:42;3.10;99.90
38380;DHT22;38377;47.418;18.882;2023-04-09T01:26:58;3.00;99.90
38380;DHT22;38377;47.418;18.882;2023-04-09T01:29:06;3.10;99.90
38380;DHT22;38377;47.418;18.882;2023-04-09T01:31:37;3.10;99.90
38380;DHT22;38377;47.418;18.882;2023-04-09T01:34:04;3.10;99.90
38380;DHT22;38377;47.418;18.882;2023-04-09T01:36:31;3.10;99.90
38380;DHT22;38377;47.418;18.882;2023-04-09T01:38:59;3.00;99.90
38380;DHT22;38377;47.418;18.882;2023-04-09T01:41:25;3.00;99.90
38380;DHT22;38377;47.418;18.882;2023-04-09T01:43:52;3.00;99.90
38380;DHT22;38377;47.418;18.882;2023-04-09T01:46:20;3.00;99.90
38380;DHT22;38377;47.418;18.882;2023-04-09T01:48:46;3.00;99.90
38380;DHT22;38377;47.418;18.882;2023-04-09T01:51:12;3.00;99.90
38380;DHT22;38377;47.418;18.882;2023-04-09T01:53:39;3.00;99.90
38380;DHT22;38377;47.418;18.882;2023-04-09T01:56:06;3.00;99.90
38380;DHT22;38377;47.418;18.882;2023-04-09T01:58:32;3.00;99.90
38380;DHT22;38377;47.418;18.882;2023-04-09T02:01:35;2.90;99.90
38380;DHT22;38377;47.418;18.882;2023-04-09T02:04:06;2.90;99.90
38380;DHT22;38377;47.418;18.882;2023-04-09T02:06:52;2.90;99.90
38380;DHT22;38377;47.418;18.882;2023-04-09T02:09:19;2.90;99.90
38380;DHT22;38377;47.418;18.882;2023-04-09T02:11:46;2.90;99.90
38380;DHT22;38377;47.418;18.882;2023-04-09T02:14:14;2.90;99.90
38380;DHT22;38377;47.418;18.882;2023-04-09T02:16:40;2.90;99.90
38380;DHT22;38377;47.418;18.882;2023-04-09T02:19:06;2.90;99.90
38380;DHT22;38377;47.418;18.882;2023-04-09T02:21:32;2.90;99.90
38380;DHT22;38377;47.418;18.882;2023-04-09T02:23:58;2.90;99.90
38380;DHT22;38377;47.418;18.882;2023-04-09T02:26:24;2.90;99.90
38380;DHT22;38377;47.418;18.882;2023-04-09T02:28:49;2.90;99.90
38380;DHT22;38377;47.418;18.882;2023-04-09T02:31:15;2.90;99.90
38380;DHT22;38377;47.418;18.882;2023-04-09T02:33:41;2.90;99.90
38380;DHT22;38377;47.418;18.882;2023-04-09T02:36:10;2.80;99.90
38380;DHT22;38377;47.418;18.882;2023-04-09T02:38:42;2.80;99.90
38380;DHT22;38377;47.418;18.882;2023-04-09T02:41:08;2.80;99.90
38380;DHT22;38377;47.418;18.882;2023-04-09T02:43:34;2.70;99.90
38380;DHT22;38377;47.418;18.882;2023-04-09T02:46:00;2.70;99.90
38380;DHT22;38377;47.418;18.882;2023-04-09T02:48:25;2.70;99.90
38380;DHT22;38377;47.418;18.882;2023-04-09T02:50:51;2.60;99.90
38380;DHT22;38377;47.418;18.882;2023-04-09T02:53:17;2.60;99.90
38380;DHT22;38377;47.418;18.882;2023-04-09T02:55:42;2.50;99.90
38380;DHT22;38377;47.418;18.882;2023-04-09T02:58:08;2.50;99.90
38380;DHT22;38377;47.418;18.882;2023-04-09T03:00:34;2.50;99.90
38380;DHT22;38377;47.418;18.882;2023-04-09T03:03:00;2.50;99.90
38380;DHT22;38377;47.418;18.882;2023-04-09T03:05:25;2.50;99.90
38380;DHT22;38377;47.418;18.882;2023-04-09T03:07:52;2.50;99.90
38380;DHT22;38377;47.418;18.882;2023-04-09T03:10:17;2.40;99.90
38380;DHT22;38377;47.418;18.882;2023-04-09T03:12:43;2.40;99.90
38380;DHT22;38377;47.418;18.882;2023-04-09T03:15:09;2.30;99.90
38380;DHT22;38377;47.418;18.882;2023-04-09T03:17:35;2.30;99.90
38380;DHT22;38377;47.418;18.882;2023-04-09T03:20:01;2.20;99.90
38380;DHT22;38377;47.418;18.882;2023-04-09T03:22:27;2.00;99.90
38380;DHT22;38377;47.418;18.882;2023-04-09T03:24:52;1.90;99.90
38380;DHT22;38377;47.418;18.882;2023-04-09T03:27:18;1.90;99.90
38380;DHT22;38377;47.418;18.882;2023-04-09T03:29:44;1.80;99.90
38380;DHT22;38377;47.418;18.882;2023-04-09T03:32:09;1.80;99.90
38380;DHT22;38377;47.418;18.882;2023-04-09T03:34:35;1.80;99.90
38380;DHT22;38377;47.418;18.882;2023-04-09T03:37:01;1.70;99.90
38380;DHT22;38377;47.418;18.882;2023-04-09T03:39:26;1.60;99.90
38380;DHT22;38377;47.418;18.882;2023-04-09T03:41:56;1.50;99.90
38380;DHT22;38377;47.418;18.882;2023-04-09T03:44:24;1.50;99.90
38380;DHT22;38377;47.418;18.882;2023-04-09T03:46:49;1.30;99.90
38380;DHT22;38377;47.418;18.882;2023-04-09T03:49:15;1.30;99.90
38380;DHT22;38377;47.418;18.882;2023-04-09T03:51:41;1.30;99.90
38380;DHT22;38377;47.418;18.882;2023-04-09T03:54:07;1.30;99.90
38380;DHT22;38377;47.418;18.882;2023-04-09T03:56:32;1.30;99.90
38380;DHT22;38377;47.418;18.882;2023-04-09T03:58:58;1.30;99.90
38380;DHT22;38377;47.418;18.882;2023-04-09T04:01:24;1.40;99.90
38380;DHT22;38377;47.418;18.882;2023-04-09T04:04:01;1.40;99.90
38380;DHT22;38377;47.418;18.882;2023-04-09T04:06:27;1.40;99.90
38380;DHT22;38377;47.418;18.882;2023-04-09T04:08:53;1.40;99.90
38380;DHT22;38377;47.418;18.882;2023-04-09T04:11:19;1.40;99.90
38380;DHT22;38377;47.418;18.882;2023-04-09T04:13:44;1.50;99.90
38380;DHT22;38377;47.418;18.882;2023-04-09T04:16:10;1.60;99.90
38380;DHT22;38377;47.418;18.882;2023-04-09T04:18:36;1.60;99.90
38380;DHT22;38377;47.418;18.882;2023-04-09T04:21:02;1.70;99.90
38380;DHT22;38377;47.418;18.882;2023-04-09T04:23:28;1.80;99.90
38380;DHT22;38377;47.418;18.882;2023-04-09T04:25:53;1.90;99.90
38380;DHT22;38377;47.418;18.882;2023-04-09T04:28:19;2.10;99.90
38380;DHT22;38377;47.418;18.882;2023-04-09T04:30:45;2.20;99.90
38380;DHT22;38377;47.418;18.882;2023-04-09T04:33:10;2.30;99.90
38380;DHT22;38377;47.418;18.882;2023-04-09T04:35:36;2.40;99.90
38380;DHT22;38377;47.418;18.882;2023-04-09T04:38:02;2.50;99.90
38380;DHT22;38377;47.418;18.882;2023-04-09T04:40:28;2.60;99.90
38380;DHT22;38377;47.418;18.882;2023-04-09T04:42:54;2.60;99.90
38380;DHT22;38377;47.418;18.882;2023-04-09T04:45:19;2.60;99.90
38380;DHT22;38377;47.418;18.882;2023-04-09T04:47:45;2.70;99.90
38380;DHT22;38377;47.418;18.882;2023-04-09T04:50:11;2.70;99.90
38380;DHT22;38377;47.418;18.882;2023-04-09T04:52:36;2.70;99.90
38380;DHT22;38377;47.418;18.882;2023-04-09T04:55:05;2.70;99.90
38380;DHT22;38377;47.418;18.882;2023-04-09T04:57:31;2.80;99.90
38380;DHT22;38377;47.418;18.882;2023-04-09T04:59:56;2.80;99.90
38380;DHT22;38377;47.418;18.882;2023-04-09T05:02:22;2.90;99.90
38380;DHT22;38377;47.418;18.882;2023-04-09T05:04:48;3.00;99.90
38380;DHT22;38377;47.418;18.882;2023-04-09T05:07:13;3.10;99.90
38380;DHT22;38377;47.418;18.882;2023-04-09T05:09:39;3.10;99.90
38380;DHT22;38377;47.418;18.882;2023-04-09T05:12:07;3.20;99.90
38380;DHT22;38377;47.418;18.882;2023-04-09T05:14:33;3.30;99.90
38380;DHT22;38377;47.418;18.882;2023-04-09T05:16:59;3.40;99.90
38380;DHT22;38377;47.418;18.882;2023-04-09T05:19:25;3.40;99.90
38380;DHT22;38377;47.418;18.882;2023-04-09T05:21:50;3.50;99.90
38380;DHT22;38377;47.418;18.882;2023-04-09T05:24:16;3.60;99.90
38380;DHT22;38377;47.418;18.882;2023-04-09T05:26:42;3.60;99.90
38380;DHT22;38377;47.418;18.882;2023-04-09T05:29:07;3.70;99.90
38380;DHT22;38377;47.418;18.882;2023-04-09T05:31:34;3.70;99.90
38380;DHT22;38377;47.418;18.882;2023-04-09T05:34:00;3.80;99.90
38380;DHT22;38377;47.418;18.882;2023-04-09T05:36:25;3.80;99.90
38380;DHT22;38377;47.418;18.882;2023-04-09T05:38:51;3.80;99.90
38380;DHT22;38377;47.418;18.882;2023-04-09T05:41:17;3.90;99.90
38380;DHT22;38377;47.418;18.882;2023-04-09T05:43:43;3.90;99.90
38380;DHT22;38377;47.418;18.882;2023-04-09T05:46:08;4.00;99.90
38380;DHT22;38377;47.418;18.882;2023-04-09T05:48:34;4.10;99.90
38380;DHT22;38377;47.418;18.882;2023-04-09T05:51:01;4.10;99.90
38380;DHT22;38377;47.418;18.882;2023-04-09T05:53:27;4.20;99.90
38380;DHT22;38377;47.418;18.882;2023-04-09T05:55:52;4.20;99.90
38380;DHT22;38377;47.418;18.882;2023-04-09T05:58:18;4.30;99.90
38380;DHT22;38377;47.418;18.882;2023-04-09T06:00:44;4.30;99.90
38380;DHT22;38377;47.418;18.882;2023-04-09T06:03:10;4.40;99.90
38380;DHT22;38377;47.418;18.882;2023-04-09T06:05:35;4.50;99.90
38380;DHT22;38377;47.418;18.882;2023-04-09T06:08:01;4.50;99.90
38380;DHT22;38377;47.418;18.882;2023-04-09T06:10:27;4.60;99.90
38380;DHT22;38377;47.418;18.882;2023-04-09T06:12:53;4.70;99.90
38380;DHT22;38377;47.418;18.882;2023-04-09T06:15:19;4.70;99.90
38380;DHT22;38377;47.418;18.882;2023-04-09T06:17:45;4.80;99.90
38380;DHT22;38377;47.418;18.882;2023-04-09T06:20:10;4.90;99.90
38380;DHT22;38377;47.418;18.882;2023-04-09T06:22:36;4.90;99.90
38380;DHT22;38377;47.418;18.882;2023-04-09T06:25:02;5.00;99.90
38380;DHT22;38377;47.418;18.882;2023-04-09T06:27:28;5.00;99.90
38380;DHT22;38377;47.418;18.882;2023-04-09T06:29:54;5.10;99.90
38380;DHT22;38377;47.418;18.882;2023-04-09T06:32:19;5.10;99.90
38380;DHT22;38377;47.418;18.882;2023-04-09T06:34:45;5.10;99.90
38380;DHT22;38377;47.418;18.882;2023-04-09T06:37:11;5.10;99.90
38380;DHT22;38377;47.418;18.882;2023-04-09T06:39:37;5.10;99.90
38380;DHT22;38377;47.418;18.882;2023-04-09T06:42:02;5.10;99.90
38380;DHT22;38377;47.418;18.882;2023-04-09T06:44:29;5.20;99.90
38380;DHT22;38377;47.418;18.882;2023-04-09T06:46:55;5.10;99.90
38380;DHT22;38377;47.418;18.882;2023-04-09T06:49:21;5.20;99.90
38380;DHT22;38377;47.418;18.882;2023-04-09T06:51:46;5.20;99.90
38380;DHT22;38377;47.418;18.882;2023-04-09T06:54:12;5.30;99.90
38380;DHT22;38377;47.418;18.882;2023-04-09T06:56:38;5.30;99.90
38380;DHT22;38377;47.418;18.882;2023-04-09T06:59:03;5.40;99.90
38380;DHT22;38377;47.418;18.882;2023-04-09T07:01:29;5.40;99.90
38380;DHT22;38377;47.418;18.882;2023-04-09T07:03:55;5.50;99.90
38380;DHT22;38377;47.418;18.882;2023-04-09T07:06:21;5.50;99.90
38380;DHT22;38377;47.418;18.882;2023-04-09T07:08:50;5.60;99.90
38380;DHT22;38377;47.418;18.882;2023-04-09T07:11:15;5.60;99.90
38380;DHT22;38377;47.418;18.882;2023-04-09T07:13:41;5.60;99.90
38380;DHT22;38377;47.418;18.882;2023-04-09T07:16:07;5.60;99.90
38380;DHT22;38377;47.418;18.882;2023-04-09T07:18:33;5.70;99.90
38380;DHT22;38377;47.418;18.882;2023-04-09T07:20:58;5.70;99.90
38380;DHT22;38377;47.418;18.882;2023-04-09T07:23:24;5.70;99.90
38380;DHT22;38377;47.418;18.882;2023-04-09T07:25:50;5.80;99.90
38380;DHT22;38377;47.418;18.882;2023-04-09T07:28:16;5.80;99.90
38380;DHT22;38377;47.418;18.882;2023-04-09T07:30:42;5.80;99.90
38380;DHT22;38377;47.418;18.882;2023-04-09T07:33:07;5.90;99.90
38380;DHT22;38377;47.418;18.882;2023-04-09T07:35:33;5.90;99.90
38380;DHT22;38377;47.418;18.882;2023-04-09T07:37:59;6.00;99.90
38380;DHT22;38377;47.418;18.882;2023-04-09T07:40:25;6.10;99.90
38380;DHT22;38377;47.418;18.882;2023-04-09T07:42:50;6.10;99.90
38380;DHT22;38377;47.418;18.882;2023-04-09T07:45:41;6.10;99.90
38380;DHT22;38377;47.418;18.882;2023-04-09T07:48:43;6.20;99.90
38380;DHT22;38377;47.418;18.882;2023-04-09T07:51:09;6.20;99.90
38380;DHT22;38377;47.418;18.882;2023-04-09T07:53:36;6.30;99.90
38380;DHT22;38377;47.418;18.882;2023-04-09T07:56:05;6.30;99.90
38380;DHT22;38377;47.418;18.882;2023-04-09T07:58:31;6.60;99.90
38380;DHT22;38377;47.418;18.882;2023-04-09T08:00:56;6.70;99.90
38380;DHT22;38377;47.418;18.882;2023-04-09T08:03:24;6.90;99.90
38380;DHT22;38377;47.418;18.882;2023-04-09T08:05:53;6.90;99.90
38380;DHT22;38377;47.418;18.882;2023-04-09T08:08:20;7.00;99.90
38380;DHT22;38377;47.418;18.882;2023-04-09T08:10:49;7.20;99.90
38380;DHT22;38377;47.418;18.882;2023-04-09T08:13:16;7.10;99.90
38380;DHT22;38377;47.418;18.882;2023-04-09T08:15:49;7.30;99.90
38380;DHT22;38377;47.418;18.882;2023-04-09T08:18:15;7.40;99.90
38380;DHT22;38377;47.418;18.882;2023-04-09T08:21:02;7.30;99.90
38380;DHT22;38377;47.418;18.882;2023-04-09T08:23:33;7.50;99.90
38380;DHT22;38377;47.418;18.882;2023-04-09T08:25:58;7.50;99.90
38380;DHT22;38377;47.418;18.882;2023-04-09T08:28:26;7.70;99.90
38380;DHT22;38377;47.418;18.882;2023-04-09T08:30:54;7.70;99.90
38380;DHT22;38377;47.418;18.882;2023-04-09T08:33:20;7.80;99.90
38380;DHT22;38377;47.418;18.882;2023-04-09T08:35:46;7.90;99.90
38380;DHT22;38377;47.418;18.882;2023-04-09T08:38:11;8.00;99.90
38380;DHT22;38377;47.418;18.882;2023-04-09T08:40:37;8.00;99.90
38380;DHT22;38377;47.418;18.882;2023-04-09T08:43:04;7.90;99.90
38380;DHT22;38377;47.418;18.882;2023-04-09T08:45:35;7.50;99.90
38380;DHT22;38377;47.418;18.882;2023-04-09T08:48:02;7.40;99.90
38380;DHT22;38377;47.418;18.882;2023-04-09T08:50:31;7.60;99.90
38380;DHT22;38377;47.418;18.882;2023-04-09T08:53:05;7.60;99.90
38380;DHT22;38377;47.418;18.882;2023-04-09T08:55:34;7.40;99.90
38380;DHT22;38377;47.418;18.882;2023-04-09T08:58:13;7.70;99.90
38380;DHT22;38377;47.418;18.882;2023-04-09T09:00:39;7.90;99.90
38380;DHT22;38377;47.418;18.882;2023-04-09T09:03:10;7.80;99.90
38380;DHT22;38377;47.418;18.882;2023-04-09T09:05:42;7.80;99.90
38380;DHT22;38377;47.418;18.882;2023-04-09T09:08:10;7.90;99.90
38380;DHT22;38377;47.418;18.882;2023-04-09T09:15:41;8.10;99.90
38380;DHT22;38377;47.418;18.882;2023-04-09T09:18:06;8.30;99.90
38380;DHT22;38377;47.418;18.882;2023-04-09T09:20:32;8.30;99.90
38380;DHT22;38377;47.418;18.882;2023-04-09T09:22:58;8.30;99.90
38380;DHT22;38377;47.418;18.882;2023-04-09T09:25:26;8.40;99.90
38380;DHT22;38377;47.418;18.882;2023-04-09T09:27:52;8.50;99.90
38380;DHT22;38377;47.418;18.882;2023-04-09T09:30:23;8.40;99.90
38380;DHT22;38377;47.418;18.882;2023-04-09T09:33:07;8.20;99.90
38380;DHT22;38377;47.418;18.882;2023-04-09T09:35:50;8.30;99.90
38380;DHT22;38377;47.418;18.882;2023-04-09T09:38:17;8.60;99.90
38380;DHT22;38377;47.418;18.882;2023-04-09T09:40:48;8.60;99.90
38380;DHT22;38377;47.418;18.882;2023-04-09T09:43:14;8.40;99.90
38380;DHT22;38377;47.418;18.882;2023-04-09T09:45:41;8.00;99.90
38380;DHT22;38377;47.418;18.882;2023-04-09T09:48:10;8.20;99.90
38380;DHT22;38377;47.418;18.882;2023-04-09T09:50:38;8.20;99.90
38380;DHT22;38377;47.418;18.882;2023-04-09T09:53:08;8.40;99.90
38380;DHT22;38377;47.418;18.882;2023-04-09T09:55:41;8.50;99.90
38380;DHT22;38377;47.418;18.882;2023-04-09T09:58:15;8.60;99.90
38380;DHT22;38377;47.418;18.882;2023-04-09T10:00:42;8.40;99.90
38380;DHT22;38377;47.418;18.882;2023-04-09T10:03:24;8.30;99.90
38380;DHT22;38377;47.418;18.882;2023-04-09T10:05:50;8.20;99.90
38380;DHT22;38377;47.418;18.882;2023-04-09T10:08:17;8.20;99.90
38380;DHT22;38377;47.418;18.882;2023-04-09T10:10:43;8.10;99.90
38380;DHT22;38377;47.418;18.882;2023-04-09T10:13:20;8.20;99.90
38380;DHT22;38377;47.418;18.882;2023-04-09T10:15:50;8.30;99.90
38380;DHT22;38377;47.418;18.882;2023-04-09T10:18:17;8.50;99.90
38380;DHT22;38377;47.418;18.882;2023-04-09T10:21:33;8.70;99.90
38380;DHT22;38377;47.418;18.882;2023-04-09T10:23:41;8.90;99.90
38380;DHT22;38377;47.418;18.882;2023-04-09T10:26:08;8.80;99.90
38380;DHT22;38377;47.418;18.882;2023-04-09T10:28:36;8.60;99.90
38380;DHT22;38377;47.418;18.882;2023-04-09T10:31:06;8.40;99.90
38380;DHT22;38377;47.418;18.882;2023-04-09T10:33:33;8.30;99.90
38380;DHT22;38377;47.418;18.882;2023-04-09T10:36:03;8.30;99.90
38380;DHT22;38377;47.418;18.882;2023-04-09T10:40:59;8.50;99.90
38380;DHT22;38377;47.418;18.882;2023-04-09T10:43:31;8.50;99.90
38380;DHT22;38377;47.418;18.882;2023-04-09T10:45:58;8.60;99.90
38380;DHT22;38377;47.418;18.882;2023-04-09T10:48:24;8.60;99.90
38380;DHT22;38377;47.418;18.882;2023-04-09T10:50:51;8.40;99.90
38380;DHT22;38377;47.418;18.882;2023-04-09T10:53:26;8.30;99.90
38380;DHT22;38377;47.418;18.882;2023-04-09T10:55:53;8.30;99.90
38380;DHT22;38377;47.418;18.882;2023-04-09T10:58:19;8.50;99.90
38380;DHT22;38377;47.418;18.882;2023-04-09T11:00:47;8.50;99.90
38380;DHT22;38377;47.418;18.882;2023-04-09T11:03:27;8.60;99.90
38380;DHT22;38377;47.418;18.882;2023-04-09T11:06:00;8.70;99.90
38380;DHT22;38377;47.418;18.882;2023-04-09T11:08:31;8.50;99.90
38380;DHT22;38377;47.418;18.882;2023-04-09T11:10:58;8.60;99.90
38380;DHT22;38377;47.418;18.882;2023-04-09T11:13:26;8.70;99.90
38380;DHT22;38377;47.418;18.882;2023-04-09T11:15:53;8.70;99.90
38380;DHT22;38377;47.418;18.882;2023-04-09T11:18:24;8.80;99.90
38380;DHT22;38377;47.418;18.882;2023-04-09T11:21:09;8.80;99.90
38380;DHT22;38377;47.418;18.882;2023-04-09T11:23:35;8.90;99.90
38380;DHT22;38377;47.418;18.882;2023-04-09T11:26:01;9.10;99.90
38380;DHT22;38377;47.418;18.882;2023-04-09T11:28:27;9.00;99.90
38380;DHT22;38377;47.418;18.882;2023-04-09T11:30:52;9.20;99.90
38380;DHT22;38377;47.418;18.882;2023-04-09T11:33:18;9.30;99.70
38380;DHT22;38377;47.418;18.882;2023-04-09T11:35:44;9.50;98.70
38380;DHT22;38377;47.418;18.882;2023-04-09T11:38:10;9.70;99.90
38380;DHT22;38377;47.418;18.882;2023-04-09T11:40:39;9.90;99.50
38380;DHT22;38377;47.418;18.882;2023-04-09T11:43:12;10.40;98.80
38380;DHT22;38377;47.418;18.882;2023-04-09T11:45:39;10.90;97.80
38380;DHT22;38377;47.418;18.882;2023-04-09T11:48:05;10.90;95.40
38380;DHT22;38377;47.418;18.882;2023-04-09T11:50:31;10.70;94.60
38380;DHT22;38377;47.418;18.882;2023-04-09T11:52:57;10.60;95.90
38380;DHT22;38377;47.418;18.882;2023-04-09T11:55:28;10.70;95.30
38380;DHT22;38377;47.418;18.882;2023-04-09T11:57:59;10.70;96.40
38380;DHT22;38377;47.418;18.882;2023-04-09T12:00:27;10.70;96.30
38380;DHT22;38377;47.418;18.882;2023-04-09T12:03:11;10.30;93.70
38380;DHT22;38377;47.418;18.882;2023-04-09T12:05:37;10.10;96.70
38380;DHT22;38377;47.418;18.882;2023-04-09T12:08:07;10.20;94.30
38380;DHT22;38377;47.418;18.882;2023-04-09T12:10:37;10.10;95.00
38380;DHT22;38377;47.418;18.882;2023-04-09T12:13:08;10.20;96.90
38380;DHT22;38377;47.418;18.882;2023-04-09T12:15:39;10.30;95.30
38380;DHT22;38377;47.418;18.882;2023-04-09T12:18:11;10.30;95.50
38380;DHT22;38377;47.418;18.882;2023-04-09T12:20:41;10.30;94.50
38380;DHT22;38377;47.418;18.882;2023-04-09T12:23:15;10.20;96.50
38380;DHT22;38377;47.418;18.882;2023-04-09T12:25:42;10.20;95.60
38380;DHT22;38377;47.418;18.882;2023-04-09T12:28:14;10.20;95.70
38380;DHT22;38377;47.418;18.882;2023-04-09T12:30:47;9.90;96.50
38380;DHT22;38377;47.418;18.882;2023-04-09T12:33:14;10.00;95.70
38380;DHT22;38377;47.418;18.882;2023-04-09T12:35:39;9.70;95.50
38380;DHT22;38377;47.418;18.882;2023-04-09T12:38:05;9.50;96.20
38380;DHT22;38377;47.418;18.882;2023-04-09T12:40:31;9.50;96.20
38380;DHT22;38377;47.418;18.882;2023-04-09T12:42:56;9.30;96.00
38380;DHT22;38377;47.418;18.882;2023-04-09T12:45:22;9.20;97.10
38380;DHT22;38377;47.418;18.882;2023-04-09T12:47:48;9.20;96.80
38380;DHT22;38377;47.418;18.882;2023-04-09T12:50:14;9.10;96.50
38380;DHT22;38377;47.418;18.882;2023-04-09T12:52:43;9.10;97.70
38380;DHT22;38377;47.418;18.882;2023-04-09T12:55:12;9.20;98.60
38380;DHT22;38377;47.418;18.882;2023-04-09T12:57:50;9.20;97.90
38380;DHT22;38377;47.418;18.882;2023-04-09T13:00:16;9.20;97.70
38380;DHT22;38377;47.418;18.882;2023-04-09T13:02:42;9.20;97.50
38380;DHT22;38377;47.418;18.882;2023-04-09T13:05:07;9.20;97.60
38380;DHT22;38377;47.418;18.882;2023-04-09T13:07:33;9.20;97.30
38380;DHT22;38377;47.418;18.882;2023-04-09T13:09:59;9.00;97.80
38380;DHT22;38377;47.418;18.882;2023-04-09T13:12:24;9.10;97.90
38380;DHT22;38377;47.418;18.882;2023-04-09T13:14:52;9.20;97.60
38380;DHT22;38377;47.418;18.882;2023-04-09T13:17:18;9.20;97.60
38380;DHT22;38377;47.418;18.882;2023-04-09T13:19:44;9.40;98.40
38380;DHT22;38377;47.418;18.882;2023-04-09T13:22:10;9.30;97.30
38380;DHT22;38377;47.418;18.882;2023-04-09T13:24:36;9.40;97.70
38380;DHT22;38377;47.418;18.882;2023-04-09T13:27:05;9.40;97.30
38380;DHT22;38377;47.418;18.882;2023-04-09T13:29:41;9.30;97.60
38380;DHT22;38377;47.418;18.882;2023-04-09T13:32:06;9.60;97.70
38380;DHT22;38377;47.418;18.882;2023-04-09T13:34:33;9.90;98.00
38380;DHT22;38377;47.418;18.882;2023-04-09T13:36:59;10.20;96.50
38380;DHT22;38377;47.418;18.882;2023-04-09T13:39:28;10.30;96.50
38380;DHT22;38377;47.418;18.882;2023-04-09T13:41:53;10.40;97.00
38380;DHT22;38377;47.418;18.882;2023-04-09T13:44:20;10.60;94.90
38380;DHT22;38377;47.418;18.882;2023-04-09T13:46:46;10.70;94.50
38380;DHT22;38377;47.418;18.882;2023-04-09T13:49:12;10.80;94.40
38380;DHT22;38377;47.418;18.882;2023-04-09T13:51:38;10.60;94.00
38380;DHT22;38377;47.418;18.882;2023-04-09T13:54:04;10.70;94.40
38380;DHT22;38377;47.418;18.882;2023-04-09T13:56:30;10.80;93.80
38380;DHT22;38377;47.418;18.882;2023-04-09T13:58:55;11.10;93.90
38380;DHT22;38377;47.418;18.882;2023-04-09T14:01:21;11.40;94.00
38380;DHT22;38377;47.418;18.882;2023-04-09T14:03:47;11.60;94.90
38380;DHT22;38377;47.418;18.882;2023-04-09T14:06:23;11.60;94.30
38380;DHT22;38377;47.418;18.882;2023-04-09T14:08:50;11.80;94.10
38380;DHT22;38377;47.418;18.882;2023-04-09T14:11:16;12.10;93.30
38380;DHT22;38377;47.418;18.882;2023-04-09T14:13:42;12.20;93.20
38380;DHT22;38377;47.418;18.882;2023-04-09T14:16:08;12.30;92.30
38380;DHT22;38377;47.418;18.882;2023-04-09T14:18:36;12.10;92.60
38380;DHT22;38377;47.418;18.882;2023-04-09T14:21:02;12.10;92.10
38380;DHT22;38377;47.418;18.882;2023-04-09T14:23:27;12.10;91.80
38380;DHT22;38377;47.418;18.882;2023-04-09T14:25:53;12.10;91.30
38380;DHT22;38377;47.418;18.882;2023-04-09T14:28:19;12.10;90.70
38380;DHT22;38377;47.418;18.882;2023-04-09T14:30:45;12.00;91.20
38380;DHT22;38377;47.418;18.882;2023-04-09T14:33:13;11.90;90.70
38380;DHT22;38377;47.418;18.882;2023-04-09T14:35:39;11.70;91.20
38380;DHT22;38377;47.418;18.882;2023-04-09T14:38:05;11.60;90.00
38380;DHT22;38377;47.418;18.882;2023-04-09T14:40:32;11.50;90.50
38380;DHT22;38377;47.418;18.882;2023-04-09T14:43:03;11.10;88.50
38380;DHT22;38377;47.418;18.882;2023-04-09T14:45:28;11.10;90.80
38380;DHT22;38377;47.418;18.882;2023-04-09T14:47:54;11.00;89.60
38380;DHT22;38377;47.418;18.882;2023-04-09T14:50:20;10.80;89.20
38380;DHT22;38377;47.418;18.882;2023-04-09T14:52:46;10.60;90.30
38380;DHT22;38377;47.418;18.882;2023-04-09T14:55:13;10.60;90.10
38380;DHT22;38377;47.418;18.882;2023-04-09T14:57:39;10.50;90.70
38380;DHT22;38377;47.418;18.882;2023-04-09T15:00:07;10.50;91.90
38380;DHT22;38377;47.418;18.882;2023-04-09T15:02:33;10.60;92.40
38380;DHT22;38377;47.418;18.882;2023-04-09T15:05:03;10.70;93.00
38380;DHT22;38377;47.418;18.882;2023-04-09T15:07:29;10.80;93.20
38380;DHT22;38377;47.418;18.882;2023-04-09T15:09:58;10.90;93.20
38380;DHT22;38377;47.418;18.882;2023-04-09T15:12:31;10.90;92.50
38380;DHT22;38377;47.418;18.882;2023-04-09T15:14:57;10.80;92.60
38380;DHT22;38377;47.418;18.882;2023-04-09T15:17:23;10.80;93.10
38380;DHT22;38377;47.418;18.882;2023-04-09T15:19:50;10.70;92.80
38380;DHT22;38377;47.418;18.882;2023-04-09T15:22:16;10.70;92.40
38380;DHT22;38377;47.418;18.882;2023-04-09T15:24:42;10.60;93.30
38380;DHT22;38377;47.418;18.882;2023-04-09T15:27:07;10.60;93.10
38380;DHT22;38377;47.418;18.882;2023-04-09T15:29:33;10.50;92.60
38380;DHT22;38377;47.418;18.882;2023-04-09T15:31:59;10.60;93.20
38380;DHT22;38377;47.418;18.882;2023-04-09T15:34:24;10.60;92.90
38380;DHT22;38377;47.418;18.882;2023-04-09T15:36:51;10.70;92.50
38380;DHT22;38377;47.418;18.882;2023-04-09T15:39:17;10.80;92.00
38380;DHT22;38377;47.418;18.882;2023-04-09T15:41:43;10.90;92.30
38380;DHT22;38377;47.418;18.882;2023-04-09T15:44:09;10.90;92.30
38380;DHT22;38377;47.418;18.882;2023-04-09T15:46:36;11.00;91.70